Time;durP1;ratioP1;P1;durP2;ratioP2;P2;SDS_P1;SDS_P2;PMS_P1;PMS_P2;Temp;Humidity;BMP_temperature;BMP_pressure;BME280_temperature;BME280_humidity;BME280_pressure;Samples;Min_cycle;Max_cycle;Signal;HPM_P1;HPM_P2
2023/03/06 00:01:18;;;;;;;6.50;4.97;;;3.10;99.90;;;-141.84;72.53;19013.16;5070555;28;20225;-59
2023/03/06 00:03:46;;;;;;;7.40;5.10;;;3.10;99.90;;;-141.84;72.76;18988.78;5070615;28;20237;-59
2023/03/06 00:06:14;;;;;;;7.37;5.13;;;3.20;99.90;;;-141.84;72.05;19031.47;5070573;28;20700;-59
2023/03/06 00:08:44;;;;;;;6.67;5.07;;;3.10;99.90;;;-141.84;72.20;19025.38;5070702;28;20307;-60
2023/03/06 00:11:14;;;;;;;9.03;4.93;;;3.10;99.90;;;-141.84;72.25;19051.78;5070431;28;20223;-59
2023/03/06 00:13:42;;;;;;;6.47;4.90;;;3.20;99.90;;;-141.84;71.76;19063.97;5070700;28;20236;-60
2023/03/06 00:16:10;;;;;;;7.00;5.20;;;3.20;99.90;;;-141.84;72.48;19029.44;5070247;28;20216;-59
2023/03/06 00:18:38;;;;;;;9.03;5.80;;;3.20;99.90;;;-141.84;71.76;19005.03;5070460;28;20220;-59
2023/03/06 00:21:08;;;;;;;7.13;5.47;;;3.20;99.90;;;-141.84;71.94;19015.19;5069759;28;20245;-59
2023/03/06 00:23:36;;;;;;;6.77;5.43;;;3.20;99.90;;;-141.84;72.20;19011.13;5070701;28;20210;-59
2023/03/06 00:26:09;;;;;;;7.07;5.60;;;3.20;99.90;;;-141.84;72.02;19017.25;5069945;28;20222;-57
2023/03/06 00:28:37;;;;;;;7.63;5.87;;;3.20;99.90;;;-141.84;72.70;18966.44;5070264;28;20224;-59
2023/03/06 00:31:05;;;;;;;6.53;5.30;;;3.20;99.90;;;-141.84;72.95;19007.06;5070067;28;20239;-59
2023/03/06 00:33:34;;;;;;;7.77;5.67;;;3.10;99.90;;;-141.84;72.89;18994.88;5070382;28;20302;-57
2023/03/06 00:36:05;;;;;;;8.57;5.63;;;3.10;99.90;;;-141.84;72.67;19041.63;5070014;28;20204;-60
2023/03/06 00:38:34;;;;;;;8.03;5.90;;;3.10;99.90;;;-141.84;72.46;19015.19;5070185;28;20201;-61
2023/03/06 00:41:09;;;;;;;7.03;5.50;;;3.10;99.90;;;-141.84;73.06;19015.19;5070084;28;20239;-58
2023/03/06 00:43:37;;;;;;;7.80;5.27;;;3.10;99.90;;;-141.84;72.68;19037.56;5070231;28;20233;-59
2023/03/06 00:46:06;;;;;;;7.73;5.50;;;3.00;99.90;;;-141.84;73.24;19013.16;5069649;28;20263;-58
2023/03/06 00:48:35;;;;;;;7.93;5.80;;;3.10;99.90;;;-141.84;73.04;19019.28;5069965;28;20216;-58
2023/03/06 00:51:03;;;;;;;8.03;6.07;;;3.00;99.90;;;-141.84;73.57;19025.38;5069846;28;20200;-57
2023/03/06 00:53:31;;;;;;;7.77;5.80;;;3.00;99.90;;;-141.84;73.89;19015.19;5070091;28;20208;-59
2023/03/06 00:55:59;;;;;;;7.13;5.97;;;3.00;99.90;;;-141.84;73.98;18998.94;5069404;28;20228;-59
2023/03/06 00:58:29;;;;;;;7.10;6.07;;;3.00;99.90;;;-141.84;73.51;18996.91;5073189;28;20525;-60
2023/03/06 01:00:57;;;;;;;9.47;6.50;;;3.00;99.90;;;-141.84;73.88;19003.00;5073800;28;20228;-59
2023/03/06 01:03:25;;;;;;;9.53;6.70;;;2.90;99.90;;;-141.84;73.60;18980.66;5074333;28;20281;-59
2023/03/06 01:05:53;;;;;;;8.07;6.10;;;3.00;99.90;;;-141.84;73.55;18978.63;5073472;28;20232;-59
2023/03/06 01:08:21;;;;;;;8.00;5.90;;;2.90;99.90;;;-141.84;74.08;18954.25;5073877;28;20197;-59
2023/03/06 01:10:49;;;;;;;8.80;6.57;;;2.90;99.90;;;-141.84;73.54;19007.06;5073643;28;20228;-58
2023/03/06 01:13:18;;;;;;;10.63;6.67;;;2.90;99.90;;;-141.84;73.36;18978.63;5073663;28;20687;-60
2023/03/06 01:15:47;;;;;;;8.90;7.10;;;3.00;99.90;;;-141.84;73.41;18992.84;5073086;28;20224;-58
2023/03/06 01:18:16;;;;;;;9.47;6.63;;;3.00;99.90;;;-141.84;73.64;18992.84;5073920;28;20234;-60
2023/03/06 01:20:44;;;;;;;9.77;6.60;;;3.00;99.90;;;-141.84;74.08;19033.50;5073606;28;20720;-58
2023/03/06 01:23:12;;;;;;;9.83;6.67;;;2.90;99.90;;;-141.84;73.90;19033.50;5073610;28;20220;-59
2023/03/06 01:25:40;;;;;;;8.70;6.63;;;2.90;99.90;;;-141.84;73.71;19003.00;5073415;28;20244;-59
2023/03/06 01:28:08;;;;;;;8.53;6.27;;;2.90;99.90;;;-141.84;73.79;18974.56;5073551;28;20226;-58
2023/03/06 01:30:36;;;;;;;8.83;6.13;;;2.90;99.90;;;-141.84;73.59;18990.81;5072896;28;20218;-59
2023/03/06 01:33:06;;;;;;;8.13;6.13;;;3.00;99.90;;;-141.84;73.94;18972.53;5073460;28;20228;-60
2023/03/06 01:35:34;;;;;;;10.10;6.97;;;2.90;99.90;;;-141.84;73.94;19000.97;5073816;28;20213;-59
2023/03/06 01:38:02;;;;;;;11.53;6.37;;;2.90;99.90;;;-141.84;74.09;18998.94;5072678;28;20605;-59
2023/03/06 01:40:32;;;;;;;9.40;6.30;;;2.90;99.90;;;-141.84;74.38;18984.72;5072943;28;20239;-56
2023/03/06 01:43:10;;;;;;;10.90;7.30;;;2.90;99.90;;;-141.84;74.06;18982.69;5073213;28;20236;-57
2023/03/06 01:46:23;;;;;;;10.50;6.47;;;2.80;99.90;;;-141.84;74.57;18960.34;5073193;28;20225;-56
2023/03/06 01:48:57;;;;;;;9.60;6.50;;;2.80;99.90;;;-141.84;74.65;18960.34;5073106;28;20226;-58
2023/03/06 01:51:30;;;;;;;9.53;6.40;;;2.80;99.90;;;-141.84;74.29;18974.56;5072873;28;20235;-59
2023/03/06 01:54:05;;;;;;;8.73;6.17;;;2.70;99.90;;;-141.84;74.29;19015.19;5073042;28;20192;-58
2023/03/06 01:56:33;;;;;;;9.23;6.20;;;2.80;99.90;;;-141.84;74.37;18994.88;5073370;28;20199;-58
2023/03/06 01:59:02;;;;;;;8.80;6.50;;;2.80;99.90;;;-141.84;74.31;18998.94;5072922;28;20235;-57
2023/03/06 02:01:32;;;;;;;10.10;6.47;;;2.70;99.90;;;-141.84;74.66;18968.47;5072394;28;20240;-57
2023/03/06 02:04:06;;;;;;;8.93;6.47;;;2.70;99.90;;;-141.84;74.52;18974.56;5072680;28;20243;-57
2023/03/06 02:06:38;;;;;;;8.70;6.40;;;2.70;99.90;;;-141.84;75.15;18976.59;5072513;28;20239;-58
2023/03/06 02:09:07;;;;;;;9.33;6.83;;;2.60;99.90;;;-141.84;75.33;18935.97;5051282;28;20201;-58
2023/03/06 02:11:35;;;;;;;11.17;7.30;;;2.60;99.90;;;-141.84;75.32;18921.75;5055676;28;20695;-59
2023/03/06 02:14:03;;;;;;;7.30;5.90;;;2.60;99.90;;;-141.84;75.48;18948.16;5072631;28;20256;-58
2023/03/06 02:16:33;;;;;;;9.50;6.43;;;2.50;99.90;;;-141.84;75.89;18923.78;5072198;28;20213;-58
2023/03/06 02:19:08;;;;;;;9.37;6.57;;;2.50;99.90;;;-141.84;76.08;18940.03;5072446;28;20227;-58
2023/03/06 02:21:37;;;;;;;10.57;7.00;;;2.50;99.90;;;-141.84;76.32;18942.06;5072352;28;20604;-58
2023/03/06 02:24:32;;;;;;;11.13;6.77;;;2.40;99.90;;;-141.84;76.03;18942.06;5072305;28;20196;-59
2023/03/06 02:27:06;;;;;;;9.87;6.73;;;2.40;99.90;;;-141.84;75.47;18944.09;5072414;28;20205;-57
2023/03/06 02:29:34;;;;;;;11.07;7.03;;;2.40;99.90;;;-141.84;75.52;18968.47;5073026;28;20189;-57
2023/03/06 02:32:02;;;;;;;8.43;6.33;;;2.50;99.90;;;-141.84;75.58;18952.22;5072101;28;20231;-59
2023/03/06 02:34:55;;;;;;;9.40;6.63;;;2.50;99.90;;;-141.84;75.66;18938.00;5072327;28;20809;-59
2023/03/06 02:37:28;;;;;;;9.73;6.57;;;2.50;99.90;;;-141.84;76.20;18972.53;5071959;28;20221;-58
2023/03/06 02:40:07;;;;;;;7.97;6.10;;;2.40;99.90;;;-141.84;75.31;18968.47;5072448;28;20227;-58
2023/03/06 02:42:37;;;;;;;8.47;6.20;;;2.50;99.90;;;-141.84;74.82;18933.94;5072144;28;20224;-56
2023/03/06 02:45:12;;;;;;;9.47;5.87;;;2.50;99.90;;;-141.84;74.07;18927.84;5072091;28;20201;-60
2023/03/06 02:47:40;;;;;;;7.33;6.00;;;2.50;99.90;;;-141.84;74.41;18968.47;5072260;28;20677;-59
2023/03/06 02:50:10;;;;;;;8.03;6.03;;;2.50;99.90;;;-141.84;74.23;18970.50;5071969;28;20228;-60
2023/03/06 02:52:38;;;;;;;9.23;6.00;;;2.50;99.90;;;-141.84;73.92;18982.69;5071448;28;20722;-58
2023/03/06 02:55:08;;;;;;;8.07;6.10;;;2.60;99.90;;;-141.84;74.52;18942.06;5072250;28;20239;-59
2023/03/06 02:57:37;;;;;;;9.17;5.63;;;2.60;99.90;;;-141.84;74.58;18960.34;5071831;28;20228;-58
2023/03/06 03:00:07;;;;;;;8.10;5.80;;;2.50;99.90;;;-141.84;74.87;18964.41;5072167;28;20279;-57
2023/03/06 03:02:36;;;;;;;9.83;6.37;;;2.50;99.90;;;-141.84;74.29;18964.41;5072367;28;20224;-59
2023/03/06 03:05:05;;;;;;;7.73;6.20;;;2.50;99.90;;;-141.84;74.25;18940.03;5071759;28;20228;-57
2023/03/06 03:07:34;;;;;;;8.20;6.20;;;2.60;99.90;;;-141.84;73.61;18972.53;5071141;28;20225;-58
2023/03/06 03:10:02;;;;;;;8.87;6.13;;;2.60;99.90;;;-141.84;74.05;18988.78;5071357;28;20765;-60
2023/03/06 03:12:32;;;;;;;8.37;6.40;;;2.60;99.90;;;-141.84;72.79;18984.72;5071903;28;20228;-59
2023/03/06 03:15:01;;;;;;;8.43;6.33;;;2.70;99.90;;;-141.84;73.15;18980.66;5071576;28;20227;-58
2023/03/06 03:17:29;;;;;;;8.57;6.33;;;2.70;99.90;;;-141.84;72.85;18984.72;5072062;28;20213;-59
2023/03/06 03:19:58;;;;;;;10.13;6.77;;;2.70;99.90;;;-141.84;73.49;18972.53;5070867;28;20251;-59
2023/03/06 03:22:26;;;;;;;11.97;6.77;;;2.70;99.90;;;-141.84;73.06;18988.78;5071307;28;20614;-58
2023/03/06 03:24:54;;;;;;;9.67;6.53;;;2.70;99.90;;;-141.84;72.22;18980.66;5069066;28;20235;-58
2023/03/06 03:27:22;;;;;;;9.73;6.73;;;2.70;99.90;;;-141.84;72.42;18966.44;5072088;28;20229;-59
2023/03/06 03:29:50;;;;;;;8.93;6.47;;;2.70;99.90;;;-141.84;73.04;18958.31;5071740;28;20201;-59
2023/03/06 03:32:20;;;;;;;9.07;7.17;;;2.70;99.90;;;-141.84;73.59;18956.28;5071804;28;20204;-57
2023/03/06 03:34:48;;;;;;;9.70;7.20;;;2.60;99.90;;;-141.84;72.85;18944.09;5071415;28;20233;-58
2023/03/06 03:37:16;;;;;;;11.90;7.90;;;2.60;99.90;;;-141.84;72.90;18974.56;5070821;28;20311;-58
2023/03/06 03:39:45;;;;;;;10.47;7.07;;;2.60;99.90;;;-141.84;73.07;18980.66;5070749;28;20231;-58
2023/03/06 03:42:13;;;;;;;9.07;7.07;;;2.60;99.90;;;-141.84;73.55;18962.38;5071108;28;20231;-57
2023/03/06 03:44:41;;;;;;;10.40;7.33;;;2.60;99.90;;;-141.84;73.29;18982.69;5071297;28;20197;-59
2023/03/06 03:47:09;;;;;;;9.63;6.90;;;2.60;99.90;;;-141.84;73.16;18964.41;5071009;28;20227;-58
2023/03/06 03:49:39;;;;;;;10.23;7.53;;;2.60;99.90;;;-141.84;73.59;18960.34;5070564;28;20232;-58
2023/03/06 03:52:07;;;;;;;11.90;7.83;;;2.60;99.90;;;-141.84;73.56;18958.31;5071000;28;20229;-59
2023/03/06 03:54:35;;;;;;;9.80;7.13;;;2.60;99.90;;;-141.84;73.60;18968.47;5070542;28;20225;-58
2023/03/06 03:57:04;;;;;;;12.60;8.00;;;2.60;99.90;;;-141.84;73.49;18960.34;5070851;28;20194;-57
2023/03/06 03:59:32;;;;;;;10.37;7.90;;;2.60;99.90;;;-141.84;72.91;18972.53;5071626;28;20211;-58
2023/03/06 04:02:03;;;;;;;12.00;7.87;;;2.60;99.90;;;-141.84;73.52;18927.84;5070660;28;20236;-58
2023/03/06 04:04:31;;;;;;;10.47;7.97;;;2.50;99.90;;;-141.84;73.19;18988.78;5070358;28;20216;-57
2023/03/06 04:07:03;;;;;;;11.50;8.07;;;2.50;99.90;;;-141.84;72.21;18980.66;5070469;28;20680;-59
2023/03/06 04:09:31;;;;;;;13.60;8.40;;;2.60;99.90;;;-141.84;72.15;18986.75;5070463;28;20221;-56
2023/03/06 04:11:59;;;;;;;12.57;8.20;;;2.60;99.90;;;-141.84;72.56;18921.75;5070318;28;20676;-60
2023/03/06 04:14:27;;;;;;;11.80;7.73;;;2.60;99.90;;;-141.84;73.22;18929.88;5071101;28;20207;-59
2023/03/06 04:16:55;;;;;;;12.07;8.60;;;2.50;99.90;;;-141.84;73.50;18950.19;5070293;28;20267;-58
2023/03/06 04:19:24;;;;;;;12.37;8.03;;;2.50;99.90;;;-141.84;73.29;19005.03;5069907;28;20216;-59
2023/03/06 04:21:52;;;;;;;12.80;8.20;;;2.40;99.90;;;-141.84;73.63;18954.25;5070587;28;20224;-57
2023/03/06 04:24:21;;;;;;;11.20;8.17;;;2.40;99.90;;;-141.84;73.32;18958.31;5070440;28;20216;-59
2023/03/06 04:26:50;;;;;;;11.93;7.90;;;2.40;99.90;;;-141.84;73.24;18966.44;5070346;28;20680;-60
2023/03/06 04:29:18;;;;;;;12.10;7.80;;;2.40;99.90;;;-141.84;72.64;19000.97;5070654;28;20601;-59
2023/03/06 04:31:46;;;;;;;11.73;7.87;;;2.40;99.90;;;-141.84;73.33;18954.25;5069584;28;20235;-59
2023/03/06 04:34:14;;;;;;;11.40;7.33;;;2.40;99.90;;;-141.84;73.43;18956.28;5070197;28;20228;-59
2023/03/06 04:36:43;;;;;;;12.90;8.40;;;2.40;99.90;;;-141.84;73.41;18944.09;5069897;28;20764;-58
2023/03/06 04:39:12;;;;;;;12.63;8.07;;;2.40;99.90;;;-141.84;73.62;18982.69;5069575;28;20725;-58
2023/03/06 04:41:42;;;;;;;11.10;7.90;;;2.40;99.90;;;-141.84;72.94;18984.72;5070691;28;20204;-59
2023/03/06 04:44:11;;;;;;;11.63;8.20;;;2.40;99.90;;;-141.84;73.46;18946.13;5070080;28;20231;-58
2023/03/06 04:46:41;;;;;;;11.60;8.37;;;2.30;99.90;;;-141.84;74.06;18927.84;5070109;28;20232;-59
2023/03/06 04:49:09;;;;;;;9.67;7.83;;;2.30;99.90;;;-141.84;74.40;18899.38;5069849;28;20663;-59
2023/03/06 04:51:38;;;;;;;11.73;8.40;;;2.20;99.90;;;-141.84;74.71;18948.16;5070151;28;20228;-59
2023/03/06 04:54:06;;;;;;;12.03;8.00;;;2.20;99.90;;;-141.84;74.68;18927.84;5069825;28;20207;-56
2023/03/06 04:56:34;;;;;;;11.43;8.60;;;2.10;99.90;;;-141.84;74.36;18903.44;5070470;28;20211;-59
2023/03/06 04:59:04;;;;;;;12.37;7.63;;;2.20;99.90;;;-141.84;74.07;18948.16;5069692;28;20763;-58
2023/03/06 05:01:32;;;;;;;13.40;8.57;;;2.10;99.90;;;-141.84;74.38;18911.56;5069672;28;20220;-57
2023/03/06 05:04:00;;;;;;;11.40;8.50;;;2.00;99.90;;;-141.84;74.87;18940.03;5070055;28;20630;-58
2023/03/06 05:06:28;;;;;;;14.60;8.53;;;2.00;99.90;;;-141.84;74.73;18940.03;5069935;28;20231;-59
2023/03/06 05:08:57;;;;;;;14.07;8.57;;;2.10;99.90;;;-141.84;74.78;18921.75;5069537;28;20592;-59
2023/03/06 05:11:25;;;;;;;12.77;8.60;;;2.00;99.90;;;-141.84;74.81;18899.38;5070033;28;20218;-57
2023/03/06 05:13:53;;;;;;;11.97;7.97;;;2.00;99.90;;;-141.84;75.18;18933.94;5069448;28;20241;-57
2023/03/06 05:16:22;;;;;;;14.63;9.00;;;1.90;99.90;;;-141.84;74.73;18911.56;5069310;28;20238;-59
2023/03/06 05:18:51;;;;;;;12.90;8.27;;;1.90;99.90;;;-141.84;75.00;18935.97;5069969;28;20216;-57
2023/03/06 05:21:19;;;;;;;12.57;9.03;;;1.90;99.90;;;-141.84;74.34;18944.09;5069160;28;20732;-58
2023/03/06 05:23:47;;;;;;;12.20;8.50;;;1.80;99.90;;;-141.84;74.59;18935.97;5070112;28;20201;-59
2023/03/06 05:26:16;;;;;;;11.87;8.50;;;1.90;99.90;;;-141.84;74.96;18950.19;5069840;28;20212;-57
2023/03/06 05:28:44;;;;;;;15.67;10.93;;;1.70;99.90;;;-141.84;75.64;18927.84;5069528;28;20237;-59
2023/03/06 05:31:12;;;;;;;12.80;8.83;;;1.70;99.90;;;-141.84;75.98;18907.50;5069281;28;20225;-59
2023/03/06 05:33:41;;;;;;;13.83;9.60;;;1.60;99.90;;;-141.84;76.39;18905.47;5072110;28;20232;-57
2023/03/06 05:36:10;;;;;;;12.27;9.20;;;1.60;99.90;;;-141.84;76.61;18883.13;5070207;28;20327;-59
2023/03/06 05:38:38;;;;;;;13.63;8.73;;;1.50;99.90;;;-141.84;76.79;18893.28;5069579;28;20208;-60
2023/03/06 05:41:06;;;;;;;12.50;9.03;;;1.40;99.90;;;-141.84;77.20;18897.34;5069480;28;20252;-59
2023/03/06 05:43:34;;;;;;;13.10;9.47;;;1.40;99.90;;;-141.84;77.26;18919.69;5070959;28;20238;-59
2023/03/06 05:46:05;;;;;;;14.30;9.20;;;1.40;99.90;;;-141.84;77.29;18881.09;5073035;28;20231;-59
2023/03/06 05:48:36;;;;;;;12.83;9.40;;;1.40;99.90;;;-141.84;77.07;18879.06;5073210;28;20240;-57
2023/03/06 05:51:06;;;;;;;17.07;9.73;;;1.50;99.90;;;-141.84;76.75;18905.47;5072968;28;20192;-58
2023/03/06 05:53:34;;;;;;;11.63;8.47;;;1.50;99.90;;;-141.84;76.76;18915.63;5073204;28;20209;-58
2023/03/06 05:56:07;;;;;;;14.40;9.03;;;1.60;99.90;;;-141.84;75.03;18952.22;5072582;28;20225;-58
2023/03/06 05:58:36;;;;;;;13.37;9.03;;;1.60;99.90;;;-141.84;74.14;18927.84;5072584;28;20220;-58
2023/03/06 06:01:09;;;;;;;13.80;8.23;;;1.70;99.90;;;-141.84;73.83;18931.91;5072707;28;20232;-58
2023/03/06 06:03:38;;;;;;;12.63;8.17;;;1.80;99.90;;;-141.84;74.63;18938.00;5072918;28;20713;-59
2023/03/06 06:06:11;;;;;;;13.97;9.30;;;1.90;99.90;;;-141.84;73.49;18960.34;5072574;28;20269;-59
2023/03/06 06:08:40;;;;;;;13.57;9.53;;;2.00;99.90;;;-141.84;73.81;18909.53;5072879;28;20284;-59
2023/03/06 06:11:11;;;;;;;11.77;8.10;;;2.10;99.90;;;-141.84;72.87;18950.19;5072461;28;20588;-59
2023/03/06 06:13:40;;;;;;;11.30;8.23;;;2.10;99.90;;;-141.84;71.96;18938.00;5072397;28;20231;-59
2023/03/06 06:16:10;;;;;;;13.27;8.17;;;2.20;99.90;;;-141.84;71.94;18950.19;5072618;28;20225;-59
2023/03/06 06:18:39;;;;;;;11.23;7.43;;;2.30;99.90;;;-141.84;71.65;18988.78;5072412;28;20716;-60
2023/03/06 06:21:13;;;;;;;12.80;8.50;;;2.30;99.90;;;-141.84;71.89;18952.22;5072359;28;20236;-61
2023/03/06 06:23:42;;;;;;;12.40;8.50;;;2.40;99.90;;;-141.84;71.83;18952.22;5072917;28;20211;-59
2023/03/06 06:26:11;;;;;;;11.43;8.30;;;2.30;99.90;;;-141.84;72.09;18942.06;5072526;28;20225;-58
2023/03/06 06:28:39;;;;;;;12.37;7.93;;;2.50;99.90;;;-141.84;71.48;18958.31;5070780;28;20599;-56
2023/03/06 06:31:09;;;;;;;12.37;8.50;;;2.50;99.90;;;-141.84;71.26;18990.81;5072023;28;20233;-59
2023/03/06 06:33:38;;;;;;;13.60;9.00;;;2.50;99.90;;;-141.84;71.39;18984.72;5072451;28;20592;-60
2023/03/06 06:36:17;;;;;;;13.87;8.63;;;2.50;99.90;;;-141.84;71.09;18974.56;5072287;28;20200;-59
2023/03/06 06:38:45;;;;;;;11.03;8.10;;;2.50;99.90;;;-141.84;71.00;18972.53;5072355;28;20362;-59
2023/03/06 06:41:13;;;;;;;10.73;8.50;;;2.60;99.90;;;-141.84;70.26;18984.72;5072110;28;20221;-58
2023/03/06 06:44:06;;;;;;;12.67;8.10;;;2.60;99.90;;;-141.84;70.28;18968.47;5072093;28;20231;-60
2023/03/06 06:46:37;;;;;;;12.40;8.27;;;2.60;99.90;;;-141.84;70.37;18980.66;5071927;28;20234;-59
2023/03/06 06:49:25;;;;;;;12.10;8.47;;;2.70;99.90;;;-141.84;70.63;18962.38;5071767;28;20282;-58
2023/03/06 06:51:54;;;;;;;14.10;8.73;;;2.60;99.90;;;-141.84;70.64;18964.41;5071809;28;20235;-59
2023/03/06 06:54:23;;;;;;;14.30;9.23;;;2.60;99.90;;;-141.84;70.68;19021.31;5071165;28;20235;-61
2023/03/06 06:56:51;;;;;;;12.70;9.07;;;2.60;99.90;;;-141.84;70.53;18972.53;5071858;28;20204;-59
2023/03/06 06:59:22;;;;;;;10.63;7.93;;;2.60;99.90;;;-141.84;70.13;18964.41;5072724;28;20193;-57
2023/03/06 07:01:50;;;;;;;11.97;8.33;;;2.80;99.90;;;-141.84;70.05;19009.09;5071896;28;20736;-57
2023/03/06 07:04:19;;;;;;;10.63;8.33;;;2.70;99.90;;;-141.84;70.42;19000.97;5072087;28;20231;-58
2023/03/06 07:06:47;;;;;;;13.13;8.17;;;2.80;99.90;;;-141.84;70.25;18996.91;5071599;28;20261;-57
2023/03/06 07:09:17;;;;;;;10.50;7.60;;;2.90;99.90;;;-141.84;70.15;18996.91;5071133;28;20228;-57
2023/03/06 07:11:45;;;;;;;11.73;7.87;;;2.90;99.90;;;-141.84;69.98;19005.03;5072130;28;20200;-60
2023/03/06 07:14:13;;;;;;;13.03;8.63;;;3.00;99.90;;;-141.84;70.06;18990.81;5071835;28;20298;-59
2023/03/06 07:16:41;;;;;;;13.23;8.30;;;3.00;99.90;;;-141.84;69.98;19019.28;5071183;28;20308;-59
2023/03/06 07:19:09;;;;;;;11.33;8.30;;;3.10;99.90;;;-141.84;70.21;18996.91;5071121;28;20608;-60
2023/03/06 07:21:37;;;;;;;15.07;8.93;;;3.10;99.90;;;-141.84;70.25;19005.03;5071051;28;20859;-60
2023/03/06 07:24:06;;;;;;;12.87;8.83;;;3.10;99.90;;;-141.84;70.36;19005.03;5071071;28;20211;-59
2023/03/06 07:26:35;;;;;;;13.13;8.83;;;3.10;99.90;;;-141.84;70.20;19000.97;5071546;28;20206;-59
2023/03/06 07:29:04;;;;;;;13.43;9.07;;;3.20;99.90;;;-141.84;70.80;19037.56;5069951;28;20230;-59
2023/03/06 07:31:33;;;;;;;14.33;8.63;;;3.10;99.90;;;-141.84;70.79;18998.94;5069813;28;20235;-58
2023/03/06 07:34:01;;;;;;;14.60;8.93;;;3.20;99.90;;;-141.84;71.00;19005.03;5071190;28;20229;-60
2023/03/06 07:36:33;;;;;;;13.57;9.10;;;3.10;99.90;;;-141.84;71.30;19025.38;5069394;28;20312;-58
2023/03/06 07:39:01;;;;;;;13.73;8.77;;;3.20;99.90;;;-141.84;71.39;18994.88;5070321;28;20202;-58
2023/03/06 07:41:29;;;;;;;14.77;9.53;;;3.20;99.90;;;-141.84;70.43;19033.50;5071349;28;20202;-59
2023/03/06 07:44:00;;;;;;;13.87;9.03;;;3.30;99.90;;;-141.84;70.62;19023.34;5070771;28;20238;-59
2023/03/06 07:46:28;;;;;;;14.20;8.97;;;3.20;99.90;;;-141.84;70.72;19005.03;5070827;28;20254;-58
2023/03/06 07:48:57;;;;;;;12.40;9.30;;;3.20;99.90;;;-141.84;71.13;18996.91;5070376;28;20313;-59
2023/03/06 07:51:25;;;;;;;14.97;9.13;;;3.30;99.90;;;-141.84;71.53;19009.09;5071179;28;20317;-59
2023/03/06 07:53:53;;;;;;;15.13;9.77;;;3.30;99.90;;;-141.84;72.04;18994.88;5070948;28;20206;-59
2023/03/06 07:56:23;;;;;;;15.37;9.33;;;3.30;99.90;;;-141.84;72.15;18996.91;5070943;28;20215;-56
2023/03/06 07:58:51;;;;;;;16.57;9.87;;;3.40;99.90;;;-141.84;71.30;19017.25;5070602;28;20222;-60
2023/03/06 08:01:23;;;;;;;16.50;10.00;;;3.50;99.90;;;-141.84;71.81;19007.06;5070600;28;20577;-59
2023/03/06 08:03:52;;;;;;;14.10;9.50;;;3.40;99.90;;;-141.84;71.93;19007.06;5070580;28;20280;-58
2023/03/06 08:06:23;;;;;;;14.77;9.93;;;3.40;99.90;;;-141.84;72.29;19031.47;5070736;28;20376;-58
2023/03/06 08:08:54;;;;;;;14.47;9.80;;;3.40;99.90;;;-141.84;72.52;19009.09;5070577;28;20236;-59
2023/03/06 08:11:26;;;;;;;16.83;10.23;;;3.50;99.90;;;-141.84;72.84;18996.91;5070999;28;20246;-59
2023/03/06 08:13:55;;;;;;;16.33;11.23;;;3.60;99.90;;;-141.84;73.02;19037.56;5070357;28;20228;-60
2023/03/06 08:16:27;;;;;;;16.77;10.70;;;3.60;99.90;;;-141.84;72.23;19070.06;5070152;28;20232;-58
2023/03/06 08:18:56;;;;;;;16.07;10.80;;;3.70;99.90;;;-141.84;72.08;19068.03;5070470;28;20252;-58
2023/03/06 08:21:27;;;;;;;13.30;9.67;;;3.70;99.90;;;-141.84;72.35;19057.88;5069871;28;20229;-57
2023/03/06 08:23:56;;;;;;;15.77;10.00;;;3.90;99.90;;;-141.84;72.37;19076.16;5070326;28;20186;-58
2023/03/06 08:26:26;;;;;;;14.63;9.60;;;3.90;99.90;;;-141.84;71.50;19059.91;5070661;28;20212;-57
2023/03/06 08:28:57;;;;;;;13.80;9.67;;;4.00;99.90;;;-141.84;72.00;19074.13;5070100;28;20226;-58
2023/03/06 08:31:31;;;;;;;16.57;10.10;;;4.00;99.90;;;-141.84;73.06;18998.94;5070184;28;20235;-59
2023/03/06 08:34:03;;;;;;;14.73;9.83;;;3.90;99.90;;;-141.84;73.67;19021.31;5070146;28;20224;-59
2023/03/06 08:36:31;;;;;;;14.63;10.00;;;3.70;99.90;;;-141.84;73.78;19045.69;5070201;28;20224;-59
2023/03/06 08:39:00;;;;;;;15.97;9.57;;;3.70;99.90;;;-141.84;73.83;19025.38;5069731;28;20680;-58
2023/03/06 08:41:29;;;;;;;13.77;9.93;;;3.70;99.90;;;-141.84;74.05;19027.41;5070733;28;20215;-59
2023/03/06 08:43:58;;;;;;;14.23;10.37;;;3.80;99.90;;;-141.84;74.40;18988.78;5069808;28;20227;-59
2023/03/06 08:46:29;;;;;;;13.63;9.70;;;3.70;99.90;;;-141.84;73.80;19021.31;5069737;28;20231;-59
2023/03/06 08:48:58;;;;;;;14.40;10.40;;;3.70;99.90;;;-141.84;73.67;19021.31;5069873;28;20708;-59
2023/03/06 08:51:27;;;;;;;13.03;9.30;;;3.80;99.90;;;-141.84;73.73;19023.34;5069946;28;20242;-59
2023/03/06 08:53:56;;;;;;;15.37;9.17;;;3.80;99.90;;;-141.84;74.15;19025.38;5069455;28;20809;-58
2023/03/06 08:56:28;;;;;;;13.77;9.10;;;3.70;99.90;;;-141.84;74.59;19031.47;5070258;28;20210;-59
2023/03/06 08:58:58;;;;;;;13.33;9.80;;;3.80;99.90;;;-141.84;74.52;19027.41;5070066;28;20226;-60
2023/03/06 09:01:30;;;;;;;14.83;10.03;;;3.90;99.90;;;-141.84;73.24;19047.72;5069575;28;20218;-59
2023/03/06 09:04:02;;;;;;;14.53;9.93;;;4.00;99.90;;;-141.84;72.94;19057.88;5069783;28;20498;-59
2023/03/06 09:06:33;;;;;;;17.27;9.90;;;3.90;99.90;;;-141.84;73.75;19045.69;5069781;28;20235;-60
2023/03/06 09:09:02;;;;;;;14.73;10.10;;;3.90;99.90;;;-141.84;73.57;19031.47;5069856;28;20226;-59
2023/03/06 09:11:30;;;;;;;13.13;9.80;;;3.90;99.90;;;-141.84;73.41;19082.25;5070059;28;20223;-57
2023/03/06 09:13:59;;;;;;;13.50;9.60;;;4.00;99.90;;;-141.84;73.20;19053.81;5069704;28;20231;-59
2023/03/06 09:16:29;;;;;;;13.67;9.30;;;4.10;99.90;;;-141.84;73.22;19080.22;5069813;28;20242;-59
2023/03/06 09:18:57;;;;;;;14.03;10.27;;;4.10;99.90;;;-141.84;73.00;19068.03;5071792;28;20289;-59
2023/03/06 09:21:27;;;;;;;15.50;10.50;;;4.10;99.90;;;-141.84;72.94;19078.19;5073424;28;20578;-58
2023/03/06 09:23:55;;;;;;;14.13;10.10;;;4.00;99.90;;;-141.84;72.48;19104.59;5073380;28;20199;-59
2023/03/06 09:26:24;;;;;;;14.57;10.07;;;4.10;99.90;;;-141.84;73.01;19049.75;5074029;28;20208;-58
2023/03/06 09:29:11;;;;;;;13.00;9.27;;;4.00;99.90;;;-141.84;72.52;19082.25;5073460;28;20230;-60
2023/03/06 09:31:40;;;;;;;15.73;10.20;;;4.10;99.90;;;-141.84;71.84;19086.31;5073632;28;20252;-58
2023/03/06 09:34:09;;;;;;;14.57;9.33;;;4.20;99.90;;;-141.84;71.69;19051.78;5073206;28;20223;-58
2023/03/06 09:36:37;;;;;;;14.20;9.80;;;4.30;99.90;;;-141.84;71.25;19094.44;5073702;28;20227;-60
2023/03/06 09:39:23;;;;;;;15.33;10.00;;;4.60;99.90;;;-141.84;70.04;19118.84;5072781;28;20220;-59
2023/03/06 09:41:52;;;;;;;15.20;10.13;;;4.70;99.90;;;-141.84;67.66;19171.66;5073221;28;20200;-58
2023/03/06 09:44:26;;;;;;;14.43;10.00;;;4.90;99.90;;;-141.84;67.69;19161.50;5074092;28;20208;-58
2023/03/06 09:47:34;;;;;;;14.37;9.53;;;5.10;99.90;;;-141.84;67.43;19187.91;5073370;28;20235;-58
2023/03/06 09:50:30;;;;;;;14.93;10.27;;;5.20;99.90;;;-141.84;66.61;19226.53;5071180;28;20231;-59
2023/03/06 09:53:16;;;;;;;13.27;9.37;;;5.40;99.90;;;-141.84;65.00;19236.69;5072746;28;20239;-58
2023/03/06 09:55:56;;;;;;;15.83;10.30;;;5.70;99.90;;;-141.84;64.36;19234.66;5072805;28;20235;-58
2023/03/06 09:58:29;;;;;;;13.03;9.77;;;5.80;99.90;;;-141.84;64.54;19192.00;5075086;28;20231;-59
2023/03/06 10:01:04;;;;;;;14.50;10.67;;;5.70;99.90;;;-141.84;65.49;19202.16;5073241;28;20278;-58
2023/03/06 10:03:46;;;;;;;15.77;10.87;;;5.70;99.90;;;-141.84;65.84;19149.31;5073405;28;20219;-58
2023/03/06 10:06:23;;;;;;;16.50;11.57;;;5.60;99.90;;;-141.84;65.74;19181.81;5073251;28;20216;-59
2023/03/06 10:09:01;;;;;;;15.10;11.43;;;5.40;99.90;;;-141.84;65.34;19196.06;5060243;28;20200;-58
2023/03/06 10:11:39;;;;;;;17.53;12.20;;;5.50;99.90;;;-141.84;66.21;19183.84;5073447;28;20209;-59
2023/03/06 10:14:21;;;;;;;16.77;11.67;;;5.50;99.90;;;-141.84;65.14;19204.19;5072726;28;20337;-58
2023/03/06 10:16:49;;;;;;;15.10;11.70;;;5.70;99.90;;;-141.84;63.80;19259.03;5072879;28;20700;-59
2023/03/06 10:19:21;;;;;;;16.80;11.70;;;5.90;99.90;;;-141.84;63.61;19267.16;5072265;28;20233;-59
2023/03/06 10:22:00;;;;;;;16.97;12.13;;;6.00;99.90;;;-141.84;63.51;19246.84;5072629;28;20228;-59